Troy, TX

5:45 AM CDT on April 21, 2015 (GMT -0500)
Hood Army Air Field | | Change Station
CLOSE
Current Station
Airport
Location: Killeen/Ft Hood,
Elevation: 922 ft
Nearby Weather Stations

Elev 922 ft 31.14 °N, 97.71 °W | Updated 47 minutes ago

Clear
Clear
54 °F
Feels Like 54 °F
N
2
Wind Variable Wind from SE

Today
High -- | Low -- °F
--% Chance of Precip.
Yesterday
High -- | Low -- °F
Precip. -- in
6:54 AM 8:01 PM
Waxing Crescent, 9% visible
Pressure 29.96 in
Visibility 10.0 miles
Clouds Clear
Dew Point 44 °F
Humidity 68%
Rainfall 0.00 in
Snow Depth Not available.
UV 0 out of 12
Pollen 9.50 out of 12
Air Quality Not available.
Flu Activity Local Activity
METAR KHLR 210958Z AUTO 14002KT 10SM CLR 12/06 A2997 RMK AO2 SLP143 T01220064

More Conditions Fewer Conditions

Pressure 29.96 in
Visibility 10.0 miles
Clouds Clear
Dew Point 44 °F
Humidity 68%
Rainfall 0.00 in
Snow Depth Not available.
UV 0 out of 12
Pollen 9.50 out of 12
Air Quality Not available.
Flu Activity Local Activity
METAR KHLR 210958Z AUTO 14002KT 10SM CLR 12/06 A2997 RMK AO2 SLP143 T01220064

More Conditions Fewer Conditions

Nowcast | as of 5:38 am CDT on April 21, 2015

Scattered showers and sprinkles will mainly affect areas north of Interstate 20...along with an isolated thunderstorm or two. Lightning will be the main hazard with this activity. Further south across central Texas...an isolated shower cannot be ruled out through mid morning. Rainfall will be very localized and light with only trace to a few hundredths expected as this activity moves east-southeast at 30 mph. Otherwise...southeast winds 5 to 10 mph will continue under mostly cloudy skies north...partly cloudy south. Temperatures currently between 45 to 55 degrees will warm into the upper 50s to lower 60s by 10 am.

×

10-Day Weather Forecast

Almanac

Astronomy

Apr. 21, 2015 Rise Set
Actual Time
Civil Twilight
Nautical Twilight
Astronomical Twilight
Moon
Length of Visible Light
Length of Day
Tomorrow will be .
, % of the Moon is Illuminated

Today's Extremes

State Highs State Lows

Community

WunderPhotos

Upload Photos

1,815,340 photos uploaded!

WunderBlogs® & News

Nearby

Air Quality

  Air Quality AQ Index Pollutant
Not available.

Snow Depth

Station Depth Elevation

Earthquake Activity

City Distance Mag. Time & Date
Minimum magnitude displayed is 2.5.

Coastal Water Temperatures

Place Temperature

Stations

Nearby Weather Stations

Station Location Temp. Windchill Dew Point Humidity Wind Precip. Elev Updated Type